sensor_id;sensor_type;location;lat;lon;timestamp;temperature;humidity
55004;DHT22;40900;52.710;6.438;2023-11-18T00:00:32;2.80;99.90
55004;DHT22;40900;52.710;6.438;2023-11-18T00:02:58;2.70;99.90
55004;DHT22;40900;52.710;6.438;2023-11-18T00:05:25;2.70;99.90
55004;DHT22;40900;52.710;6.438;2023-11-18T00:07:51;2.70;99.90
55004;DHT22;40900;52.710;6.438;2023-11-18T00:10:17;2.60;99.90
55004;DHT22;40900;52.710;6.438;2023-11-18T00:12:43;2.60;99.90
55004;DHT22;40900;52.710;6.438;2023-11-18T00:15:09;1.60;99.90
55004;DHT22;40900;52.710;6.438;2023-11-18T00:17:39;2.60;99.90
55004;DHT22;40900;52.710;6.438;2023-11-18T00:20:06;2.50;99.90
55004;DHT22;40900;52.710;6.438;2023-11-18T00:22:38;2.50;99.90
55004;DHT22;40900;52.710;6.438;2023-11-18T00:25:05;2.50;99.90
55004;DHT22;40900;52.710;6.438;2023-11-18T00:27:33;2.40;99.90
55004;DHT22;40900;52.710;6.438;2023-11-18T00:30:03;2.40;99.90
55004;DHT22;40900;52.710;6.438;2023-11-18T00:32:31;2.40;99.90
55004;DHT22;40900;52.710;6.438;2023-11-18T00:34:57;2.40;99.90
55004;DHT22;40900;52.710;6.438;2023-11-18T00:37:23;2.50;99.90
55004;DHT22;40900;52.710;6.438;2023-11-18T00:39:49;2.50;99.90
55004;DHT22;40900;52.710;6.438;2023-11-18T00:42:15;2.40;99.90
55004;DHT22;40900;52.710;6.438;2023-11-18T00:44:41;2.30;99.90
55004;DHT22;40900;52.710;6.438;2023-11-18T00:47:07;2.50;99.90
55004;DHT22;40900;52.710;6.438;2023-11-18T00:49:34;2.30;99.90
55004;DHT22;40900;52.710;6.438;2023-11-18T00:52:00;2.50;99.90
55004;DHT22;40900;52.710;6.438;2023-11-18T00:54:26;2.40;99.90
55004;DHT22;40900;52.710;6.438;2023-11-18T00:56:52;2.50;99.90
55004;DHT22;40900;52.710;6.438;2023-11-18T00:59:18;2.50;99.90
55004;DHT22;40900;52.710;6.438;2023-11-18T01:01:45;2.50;99.90
55004;DHT22;40900;52.710;6.438;2023-11-18T01:04:11;2.50;99.90
55004;DHT22;40900;52.710;6.438;2023-11-18T01:06:37;4.10;99.90
55004;DHT22;40900;52.710;6.438;2023-11-18T01:09:03;2.50;99.90
55004;DHT22;40900;52.710;6.438;2023-11-18T01:11:29;2.50;99.90
55004;DHT22;40900;52.710;6.438;2023-11-18T01:13:55;2.50;99.90
55004;DHT22;40900;52.710;6.438;2023-11-18T01:16:21;2.50;99.90
55004;DHT22;40900;52.710;6.438;2023-11-18T01:18:47;2.50;99.90
55004;DHT22;40900;52.710;6.438;2023-11-18T01:21:14;2.50;99.90
55004;DHT22;40900;52.710;6.438;2023-11-18T01:23:42;2.50;99.90
55004;DHT22;40900;52.710;6.438;2023-11-18T01:26:10;2.50;99.90
55004;DHT22;40900;52.710;6.438;2023-11-18T01:28:38;2.50;99.90
55004;DHT22;40900;52.710;6.438;2023-11-18T01:31:07;2.50;99.90
55004;DHT22;40900;52.710;6.438;2023-11-18T01:33:37;2.50;99.90
55004;DHT22;40900;52.710;6.438;2023-11-18T01:36:09;2.60;99.90
55004;DHT22;40900;52.710;6.438;2023-11-18T01:38:36;2.50;99.90
55004;DHT22;40900;52.710;6.438;2023-11-18T01:41:04;2.60;99.90
55004;DHT22;40900;52.710;6.438;2023-11-18T01:43:30;2.60;99.90
55004;DHT22;40900;52.710;6.438;2023-11-18T01:46:03;2.60;99.90
55004;DHT22;40900;52.710;6.438;2023-11-18T01:48:30;2.60;99.90
55004;DHT22;40900;52.710;6.438;2023-11-18T01:50:57;2.70;99.90
55004;DHT22;40900;52.710;6.438;2023-11-18T01:53:26;2.70;99.90
55004;DHT22;40900;52.710;6.438;2023-11-18T01:55:54;2.70;99.90
55004;DHT22;40900;52.710;6.438;2023-11-18T01:58:21;2.70;99.90
55004;DHT22;40900;52.710;6.438;2023-11-18T02:00:50;2.70;99.90
55004;DHT22;40900;52.710;6.438;2023-11-18T02:03:19;2.70;99.90
55004;DHT22;40900;52.710;6.438;2023-11-18T02:05:46;2.70;99.90
55004;DHT22;40900;52.710;6.438;2023-11-18T02:08:12;3.60;99.90
55004;DHT22;40900;52.710;6.438;2023-11-18T02:10:52;1.20;99.90
55004;DHT22;40900;52.710;6.438;2023-11-18T02:13:29;3.00;99.90
55004;DHT22;40900;52.710;6.438;2023-11-18T02:15:57;2.90;99.90
55004;DHT22;40900;52.710;6.438;2023-11-18T02:18:29;2.90;99.90
55004;DHT22;40900;52.710;6.438;2023-11-18T02:20:56;2.90;99.90
55004;DHT22;40900;52.710;6.438;2023-11-18T02:23:26;2.90;99.90
55004;DHT22;40900;52.710;6.438;2023-11-18T02:25:53;3.00;99.90
55004;DHT22;40900;52.710;6.438;2023-11-18T02:28:19;3.00;99.90
55004;DHT22;40900;52.710;6.438;2023-11-18T02:30:45;4.00;99.90
55004;DHT22;40900;52.710;6.438;2023-11-18T02:33:17;3.10;99.90
55004;DHT22;40900;52.710;6.438;2023-11-18T02:35:58;3.10;99.90
55004;DHT22;40900;52.710;6.438;2023-11-18T02:38:39;3.00;99.90
55004;DHT22;40900;52.710;6.438;2023-11-18T02:41:12;3.20;99.90
55004;DHT22;40900;52.710;6.438;2023-11-18T02:43:39;3.10;99.90
55004;DHT22;40900;52.710;6.438;2023-11-18T02:46:07;2.70;99.90
55004;DHT22;40900;52.710;6.438;2023-11-18T02:48:34;3.70;99.90
55004;DHT22;40900;52.710;6.438;2023-11-18T02:51:01;2.60;99.90
55004;DHT22;40900;52.710;6.438;2023-11-18T02:53:27;3.20;99.90
55004;DHT22;40900;52.710;6.438;2023-11-18T02:55:54;3.10;99.90
55004;DHT22;40900;52.710;6.438;2023-11-18T02:58:30;3.10;99.90
55004;DHT22;40900;52.710;6.438;2023-11-18T03:00:56;3.10;99.90
55004;DHT22;40900;52.710;6.438;2023-11-18T03:03:25;3.10;99.90
55004;DHT22;40900;52.710;6.438;2023-11-18T03:05:53;3.20;99.90
55004;DHT22;40900;52.710;6.438;2023-11-18T03:08:18;3.20;99.90
55004;DHT22;40900;52.710;6.438;2023-11-18T03:10:44;3.20;99.90
55004;DHT22;40900;52.710;6.438;2023-11-18T03:13:10;1.40;99.90
55004;DHT22;40900;52.710;6.438;2023-11-18T03:15:38;3.30;99.90
55004;DHT22;40900;52.710;6.438;2023-11-18T03:18:04;3.30;99.90
55004;DHT22;40900;52.710;6.438;2023-11-18T03:20:33;3.00;99.90
55004;DHT22;40900;52.710;6.438;2023-11-18T03:22:59;3.40;99.90
55004;DHT22;40900;52.710;6.438;2023-11-18T03:25:28;3.40;99.90
55004;DHT22;40900;52.710;6.438;2023-11-18T03:27:54;4.00;99.90
55004;DHT22;40900;52.710;6.438;2023-11-18T03:30:20;3.40;99.90
55004;DHT22;40900;52.710;6.438;2023-11-18T03:32:46;3.30;99.90
55004;DHT22;40900;52.710;6.438;2023-11-18T03:35:12;3.40;99.90
55004;DHT22;40900;52.710;6.438;2023-11-18T03:37:39;3.40;99.90
55004;DHT22;40900;52.710;6.438;2023-11-18T03:40:13;3.40;99.90
55004;DHT22;40900;52.710;6.438;2023-11-18T03:42:41;3.40;99.90
55004;DHT22;40900;52.710;6.438;2023-11-18T03:45:08;3.60;99.90
55004;DHT22;40900;52.710;6.438;2023-11-18T03:47:37;3.50;99.90
55004;DHT22;40900;52.710;6.438;2023-11-18T03:50:03;3.50;99.90
55004;DHT22;40900;52.710;6.438;2023-11-18T03:52:30;3.60;99.90
55004;DHT22;40900;52.710;6.438;2023-11-18T03:54:57;3.50;99.90
55004;DHT22;40900;52.710;6.438;2023-11-18T03:57:23;3.60;99.90
55004;DHT22;40900;52.710;6.438;2023-11-18T03:59:48;3.60;99.90
55004;DHT22;40900;52.710;6.438;2023-11-18T04:02:16;3.60;99.90
55004;DHT22;40900;52.710;6.438;2023-11-18T04:04:42;3.60;99.90
55004;DHT22;40900;52.710;6.438;2023-11-18T04:07:08;3.70;99.90
55004;DHT22;40900;52.710;6.438;2023-11-18T04:09:34;3.90;99.90
55004;DHT22;40900;52.710;6.438;2023-11-18T04:12:00;3.60;99.90
55004;DHT22;40900;52.710;6.438;2023-11-18T04:14:26;3.70;99.90
55004;DHT22;40900;52.710;6.438;2023-11-18T04:16:52;2.90;99.90
55004;DHT22;40900;52.710;6.438;2023-11-18T04:19:19;3.80;99.90
55004;DHT22;40900;52.710;6.438;2023-11-18T04:21:47;3.80;99.90
55004;DHT22;40900;52.710;6.438;2023-11-18T04:24:15;3.70;99.90
55004;DHT22;40900;52.710;6.438;2023-11-18T04:26:41;3.80;99.90
55004;DHT22;40900;52.710;6.438;2023-11-18T04:29:09;3.90;99.90
55004;DHT22;40900;52.710;6.438;2023-11-18T04:31:35;3.90;99.90
55004;DHT22;40900;52.710;6.438;2023-11-18T04:34:03;3.80;99.90
55004;DHT22;40900;52.710;6.438;2023-11-18T04:36:30;3.80;99.90
55004;DHT22;40900;52.710;6.438;2023-11-18T04:38:57;3.90;99.90
55004;DHT22;40900;52.710;6.438;2023-11-18T04:41:23;3.90;99.90
55004;DHT22;40900;52.710;6.438;2023-11-18T04:43:49;3.90;99.90
55004;DHT22;40900;52.710;6.438;2023-11-18T04:46:15;3.90;99.90
55004;DHT22;40900;52.710;6.438;2023-11-18T04:48:42;3.90;99.90
55004;DHT22;40900;52.710;6.438;2023-11-18T04:51:08;4.00;99.90
55004;DHT22;40900;52.710;6.438;2023-11-18T04:53:34;4.00;99.90
55004;DHT22;40900;52.710;6.438;2023-11-18T04:56:00;4.00;99.90
55004;DHT22;40900;52.710;6.438;2023-11-18T04:58:26;3.90;99.90
55004;DHT22;40900;52.710;6.438;2023-11-18T05:00:52;4.00;99.90
55004;DHT22;40900;52.710;6.438;2023-11-18T05:03:18;4.00;99.90
55004;DHT22;40900;52.710;6.438;2023-11-18T05:05:44;4.00;99.90
55004;DHT22;40900;52.710;6.438;2023-11-18T05:08:19;4.00;99.90
55004;DHT22;40900;52.710;6.438;2023-11-18T05:10:49;4.00;99.90
55004;DHT22;40900;52.710;6.438;2023-11-18T05:13:16;4.10;99.90
55004;DHT22;40900;52.710;6.438;2023-11-18T05:15:46;4.10;99.90
55004;DHT22;40900;52.710;6.438;2023-11-18T05:18:13;4.10;99.90
55004;DHT22;40900;52.710;6.438;2023-11-18T05:20:42;4.00;99.90
55004;DHT22;40900;52.710;6.438;2023-11-18T05:23:08;4.10;99.90
55004;DHT22;40900;52.710;6.438;2023-11-18T05:25:40;4.10;99.90
55004;DHT22;40900;52.710;6.438;2023-11-18T05:28:06;4.10;99.90
55004;DHT22;40900;52.710;6.438;2023-11-18T05:30:35;4.10;99.90
55004;DHT22;40900;52.710;6.438;2023-11-18T05:33:04;4.10;99.90
55004;DHT22;40900;52.710;6.438;2023-11-18T05:35:31;4.10;99.90
55004;DHT22;40900;52.710;6.438;2023-11-18T05:37:58;4.20;99.90
55004;DHT22;40900;52.710;6.438;2023-11-18T05:40:25;4.20;99.90
55004;DHT22;40900;52.710;6.438;2023-11-18T05:42:52;4.10;99.90
55004;DHT22;40900;52.710;6.438;2023-11-18T05:45:19;4.10;99.90
55004;DHT22;40900;52.710;6.438;2023-11-18T05:47:56;4.10;99.90
55004;DHT22;40900;52.710;6.438;2023-11-18T05:50:23;4.10;99.90
55004;DHT22;40900;52.710;6.438;2023-11-18T05:52:53;4.20;99.90
55004;DHT22;40900;52.710;6.438;2023-11-18T05:55:19;4.20;99.90
55004;DHT22;40900;52.710;6.438;2023-11-18T05:57:45;4.10;99.90
55004;DHT22;40900;52.710;6.438;2023-11-18T06:00:15;4.10;99.90
55004;DHT22;40900;52.710;6.438;2023-11-18T06:02:44;4.20;99.90
55004;DHT22;40900;52.710;6.438;2023-11-18T06:05:10;4.40;99.90
55004;DHT22;40900;52.710;6.438;2023-11-18T06:07:38;4.20;99.90
55004;DHT22;40900;52.710;6.438;2023-11-18T06:10:06;4.20;99.90
55004;DHT22;40900;52.710;6.438;2023-11-18T06:12:32;4.20;99.90
55004;DHT22;40900;52.710;6.438;2023-11-18T06:14:59;4.30;99.90
55004;DHT22;40900;52.710;6.438;2023-11-18T06:17:24;4.20;99.90
55004;DHT22;40900;52.710;6.438;2023-11-18T06:19:50;4.20;99.90
55004;DHT22;40900;52.710;6.438;2023-11-18T06:22:16;4.30;99.90
55004;DHT22;40900;52.710;6.438;2023-11-18T06:24:42;2.40;99.90
55004;DHT22;40900;52.710;6.438;2023-11-18T06:27:08;4.30;99.90
55004;DHT22;40900;52.710;6.438;2023-11-18T06:29:34;4.30;99.90
55004;DHT22;40900;52.710;6.438;2023-11-18T06:32:00;4.30;99.90
55004;DHT22;40900;52.710;6.438;2023-11-18T06:34:26;4.00;99.90
55004;DHT22;40900;52.710;6.438;2023-11-18T06:36:53;4.30;99.90
55004;DHT22;40900;52.710;6.438;2023-11-18T06:39:19;4.30;99.90
55004;DHT22;40900;52.710;6.438;2023-11-18T06:41:55;4.30;99.90
55004;DHT22;40900;52.710;6.438;2023-11-18T06:44:21;4.40;99.90
55004;DHT22;40900;52.710;6.438;2023-11-18T06:46:49;4.30;99.90
55004;DHT22;40900;52.710;6.438;2023-11-18T06:49:16;4.40;99.90
55004;DHT22;40900;52.710;6.438;2023-11-18T06:51:42;4.40;99.90
55004;DHT22;40900;52.710;6.438;2023-11-18T06:54:08;4.40;99.90
55004;DHT22;40900;52.710;6.438;2023-11-18T06:56:36;4.40;99.90
55004;DHT22;40900;52.710;6.438;2023-11-18T06:59:07;4.40;99.90
55004;DHT22;40900;52.710;6.438;2023-11-18T07:01:36;4.40;99.90
55004;DHT22;40900;52.710;6.438;2023-11-18T07:04:02;4.50;99.90
55004;DHT22;40900;52.710;6.438;2023-11-18T07:06:28;4.50;99.90
55004;DHT22;40900;52.710;6.438;2023-11-18T07:08:54;4.50;99.90
55004;DHT22;40900;52.710;6.438;2023-11-18T07:11:21;4.60;99.90
55004;DHT22;40900;52.710;6.438;2023-11-18T07:13:47;4.50;99.90
55004;DHT22;40900;52.710;6.438;2023-11-18T07:16:15;4.60;99.90
55004;DHT22;40900;52.710;6.438;2023-11-18T07:18:41;4.50;99.90
55004;DHT22;40900;52.710;6.438;2023-11-18T07:21:09;4.60;99.90
55004;DHT22;40900;52.710;6.438;2023-11-18T07:23:36;4.40;99.90
55004;DHT22;40900;52.710;6.438;2023-11-18T07:26:02;2.80;99.90
55004;DHT22;40900;52.710;6.438;2023-11-18T07:28:31;4.50;99.90
55004;DHT22;40900;52.710;6.438;2023-11-18T07:30:57;4.40;99.90
55004;DHT22;40900;52.710;6.438;2023-11-18T07:33:25;4.60;99.90
55004;DHT22;40900;52.710;6.438;2023-11-18T07:35:50;4.60;99.90
55004;DHT22;40900;52.710;6.438;2023-11-18T07:38:18;4.60;99.90
55004;DHT22;40900;52.710;6.438;2023-11-18T07:40:46;4.60;99.90
55004;DHT22;40900;52.710;6.438;2023-11-18T07:43:13;4.60;99.90
55004;DHT22;40900;52.710;6.438;2023-11-18T07:45:40;4.70;99.90
55004;DHT22;40900;52.710;6.438;2023-11-18T07:48:09;4.60;99.90
55004;DHT22;40900;52.710;6.438;2023-11-18T07:50:39;3.20;99.90
55004;DHT22;40900;52.710;6.438;2023-11-18T07:53:07;4.60;99.90
55004;DHT22;40900;52.710;6.438;2023-11-18T07:55:34;4.60;99.90
55004;DHT22;40900;52.710;6.438;2023-11-18T07:58:01;4.70;99.90
55004;DHT22;40900;52.710;6.438;2023-11-18T08:00:27;4.70;99.90
55004;DHT22;40900;52.710;6.438;2023-11-18T08:02:57;4.70;99.90
55004;DHT22;40900;52.710;6.438;2023-11-18T08:05:26;4.70;99.90
55004;DHT22;40900;52.710;6.438;2023-11-18T08:07:51;4.70;99.90
55004;DHT22;40900;52.710;6.438;2023-11-18T08:10:19;4.60;99.90
55004;DHT22;40900;52.710;6.438;2023-11-18T08:12:45;4.70;99.90
55004;DHT22;40900;52.710;6.438;2023-11-18T08:15:12;4.70;99.90
55004;DHT22;40900;52.710;6.438;2023-11-18T08:17:39;4.70;99.90
55004;DHT22;40900;52.710;6.438;2023-11-18T08:20:05;4.80;99.90
55004;DHT22;40900;52.710;6.438;2023-11-18T08:22:43;4.70;99.90
55004;DHT22;40900;52.710;6.438;2023-11-18T08:25:12;4.70;99.90
55004;DHT22;40900;52.710;6.438;2023-11-18T08:27:40;4.70;99.90
55004;DHT22;40900;52.710;6.438;2023-11-18T08:30:08;4.70;99.90
55004;DHT22;40900;52.710;6.438;2023-11-18T08:32:41;4.70;99.90
55004;DHT22;40900;52.710;6.438;2023-11-18T08:35:09;4.70;99.90
55004;DHT22;40900;52.710;6.438;2023-11-18T08:37:38;4.70;99.90
55004;DHT22;40900;52.710;6.438;2023-11-18T08:40:05;4.70;99.90
55004;DHT22;40900;52.710;6.438;2023-11-18T08:42:44;4.80;99.90
55004;DHT22;40900;52.710;6.438;2023-11-18T08:45:20;4.80;99.90
55004;DHT22;40900;52.710;6.438;2023-11-18T08:47:53;4.80;99.90
55004;DHT22;40900;52.710;6.438;2023-11-18T08:50:19;4.80;99.90
55004;DHT22;40900;52.710;6.438;2023-11-18T08:52:46;4.80;99.90
55004;DHT22;40900;52.710;6.438;2023-11-18T08:55:14;4.80;99.90
55004;DHT22;40900;52.710;6.438;2023-11-18T08:57:47;4.80;99.90
55004;DHT22;40900;52.710;6.438;2023-11-18T09:00:27;4.90;99.90
55004;DHT22;40900;52.710;6.438;2023-11-18T09:03:13;4.80;99.90
55004;DHT22;40900;52.710;6.438;2023-11-18T09:05:50;4.90;99.90
55004;DHT22;40900;52.710;6.438;2023-11-18T09:11:04;4.80;99.90
55004;DHT22;40900;52.710;6.438;2023-11-18T09:13:34;4.90;99.90
55004;DHT22;40900;52.710;6.438;2023-11-18T09:16:04;4.90;99.90
55004;DHT22;40900;52.710;6.438;2023-11-18T09:18:35;4.90;99.90
55004;DHT22;40900;52.710;6.438;2023-11-18T09:21:04;4.90;99.90
55004;DHT22;40900;52.710;6.438;2023-11-18T09:23:33;4.90;99.90
55004;DHT22;40900;52.710;6.438;2023-11-18T09:26:04;4.90;99.90
55004;DHT22;40900;52.710;6.438;2023-11-18T09:28:36;5.00;99.90
55004;DHT22;40900;52.710;6.438;2023-11-18T09:31:04;5.00;99.90
55004;DHT22;40900;52.710;6.438;2023-11-18T09:33:31;5.00;99.90
55004;DHT22;40900;52.710;6.438;2023-11-18T09:36:07;5.00;99.90
55004;DHT22;40900;52.710;6.438;2023-11-18T09:38:35;5.00;99.90
55004;DHT22;40900;52.710;6.438;2023-11-18T09:41:03;5.00;99.90
55004;DHT22;40900;52.710;6.438;2023-11-18T09:43:35;5.10;99.90
55004;DHT22;40900;52.710;6.438;2023-11-18T09:46:14;5.10;99.90
55004;DHT22;40900;52.710;6.438;2023-11-18T09:48:47;5.10;99.90
55004;DHT22;40900;52.710;6.438;2023-11-18T09:51:23;5.10;99.90
55004;DHT22;40900;52.710;6.438;2023-11-18T09:53:51;5.20;99.90
55004;DHT22;40900;52.710;6.438;2023-11-18T09:56:31;5.20;99.90
55004;DHT22;40900;52.710;6.438;2023-11-18T10:01:38;5.20;99.90
55004;DHT22;40900;52.710;6.438;2023-11-18T10:04:07;5.20;99.90
55004;DHT22;40900;52.710;6.438;2023-11-18T10:06:35;5.20;99.90
55004;DHT22;40900;52.710;6.438;2023-11-18T10:09:03;5.20;99.90
55004;DHT22;40900;52.710;6.438;2023-11-18T10:11:41;5.20;99.90
55004;DHT22;40900;52.710;6.438;2023-11-18T10:14:07;5.20;99.90
55004;DHT22;40900;52.710;6.438;2023-11-18T10:16:34;5.20;99.90
55004;DHT22;40900;52.710;6.438;2023-11-18T10:19:03;5.20;99.90
55004;DHT22;40900;52.710;6.438;2023-11-18T10:21:35;5.20;99.90
55004;DHT22;40900;52.710;6.438;2023-11-18T10:24:07;5.20;99.90
55004;DHT22;40900;52.710;6.438;2023-11-18T10:26:42;5.20;99.90
55004;DHT22;40900;52.710;6.438;2023-11-18T10:29:09;5.30;99.90
55004;DHT22;40900;52.710;6.438;2023-11-18T10:31:36;5.30;99.90
55004;DHT22;40900;52.710;6.438;2023-11-18T10:34:03;5.30;99.90
55004;DHT22;40900;52.710;6.438;2023-11-18T10:36:29;5.30;99.90
55004;DHT22;40900;52.710;6.438;2023-11-18T10:38:58;5.30;99.90
55004;DHT22;40900;52.710;6.438;2023-11-18T10:41:26;5.30;99.90
55004;DHT22;40900;52.710;6.438;2023-11-18T10:44:11;5.30;99.90
55004;DHT22;40900;52.710;6.438;2023-11-18T10:46:53;5.30;99.90
55004;DHT22;40900;52.710;6.438;2023-11-18T10:49:23;5.30;99.90
55004;DHT22;40900;52.710;6.438;2023-11-18T10:51:52;5.40;99.90
55004;DHT22;40900;52.710;6.438;2023-11-18T10:54:18;5.30;99.90
55004;DHT22;40900;52.710;6.438;2023-11-18T10:56:51;5.30;99.90
55004;DHT22;40900;52.710;6.438;2023-11-18T10:59:22;5.30;99.90
55004;DHT22;40900;52.710;6.438;2023-11-18T11:01:48;5.30;99.90
55004;DHT22;40900;52.710;6.438;2023-11-18T11:04:17;5.40;99.90
55004;DHT22;40900;52.710;6.438;2023-11-18T11:06:47;5.30;99.90
55004;DHT22;40900;52.710;6.438;2023-11-18T11:09:22;5.30;99.90
55004;DHT22;40900;52.710;6.438;2023-11-18T11:12:08;5.40;99.90
55004;DHT22;40900;52.710;6.438;2023-11-18T11:14:49;5.40;99.90
55004;DHT22;40900;52.710;6.438;2023-11-18T11:17:17;5.30;99.90
55004;DHT22;40900;52.710;6.438;2023-11-18T11:20:19;5.40;99.90
55004;DHT22;40900;52.710;6.438;2023-11-18T11:28:22;5.40;99.90
55004;DHT22;40900;52.710;6.438;2023-11-18T11:33:57;5.40;99.90
55004;DHT22;40900;52.710;6.438;2023-11-18T11:36:35;5.40;99.90
55004;DHT22;40900;52.710;6.438;2023-11-18T11:39:04;5.40;99.90
55004;DHT22;40900;52.710;6.438;2023-11-18T11:41:36;5.40;99.90
55004;DHT22;40900;52.710;6.438;2023-11-18T11:44:03;5.40;99.90
55004;DHT22;40900;52.710;6.438;2023-11-18T11:46:31;5.40;99.90
55004;DHT22;40900;52.710;6.438;2023-11-18T11:49:03;5.50;99.90
55004;DHT22;40900;52.710;6.438;2023-11-18T11:55:12;5.40;99.90
55004;DHT22;40900;52.710;6.438;2023-11-18T11:57:41;5.40;99.90
55004;DHT22;40900;52.710;6.438;2023-11-18T12:00:11;5.40;99.90
55004;DHT22;40900;52.710;6.438;2023-11-18T12:02:50;5.40;99.90
55004;DHT22;40900;52.710;6.438;2023-11-18T12:05:23;5.40;99.90
55004;DHT22;40900;52.710;6.438;2023-11-18T12:07:55;5.40;99.90
55004;DHT22;40900;52.710;6.438;2023-11-18T12:10:25;5.40;99.90
55004;DHT22;40900;52.710;6.438;2023-11-18T12:13:08;5.50;99.90
55004;DHT22;40900;52.710;6.438;2023-11-18T12:18:23;5.40;99.90
55004;DHT22;40900;52.710;6.438;2023-11-18T12:20:50;5.40;99.90
55004;DHT22;40900;52.710;6.438;2023-11-18T12:23:23;5.40;99.90
55004;DHT22;40900;52.710;6.438;2023-11-18T12:25:53;5.40;99.90
55004;DHT22;40900;52.710;6.438;2023-11-18T12:28:32;5.40;99.90
55004;DHT22;40900;52.710;6.438;2023-11-18T12:31:03;5.50;99.90
55004;DHT22;40900;52.710;6.438;2023-11-18T12:33:59;5.50;99.90
55004;DHT22;40900;52.710;6.438;2023-11-18T12:42:04;5.50;99.90
55004;DHT22;40900;52.710;6.438;2023-11-18T12:47:42;5.50;99.90
55004;DHT22;40900;52.710;6.438;2023-11-18T12:50:11;5.40;99.90
55004;DHT22;40900;52.710;6.438;2023-11-18T12:52:53;5.40;99.90
55004;DHT22;40900;52.710;6.438;2023-11-18T12:55:20;5.50;99.90
55004;DHT22;40900;52.710;6.438;2023-11-18T12:57:46;5.50;99.90
55004;DHT22;40900;52.710;6.438;2023-11-18T13:00:15;5.60;99.90
55004;DHT22;40900;52.710;6.438;2023-11-18T13:02:53;5.50;99.90
55004;DHT22;40900;52.710;6.438;2023-11-18T13:05:20;5.60;99.90
55004;DHT22;40900;52.710;6.438;2023-11-18T13:07:46;5.50;99.90
55004;DHT22;40900;52.710;6.438;2023-11-18T13:10:14;5.60;99.90
55004;DHT22;40900;52.710;6.438;2023-11-18T13:12:42;5.60;99.90
55004;DHT22;40900;52.710;6.438;2023-11-18T13:15:09;5.50;99.90
55004;DHT22;40900;52.710;6.438;2023-11-18T13:17:35;5.60;99.90
55004;DHT22;40900;52.710;6.438;2023-11-18T13:20:14;5.60;99.90
55004;DHT22;40900;52.710;6.438;2023-11-18T13:22:42;5.60;99.90
55004;DHT22;40900;52.710;6.438;2023-11-18T13:25:08;5.70;99.90
55004;DHT22;40900;52.710;6.438;2023-11-18T13:27:35;5.70;99.90
55004;DHT22;40900;52.710;6.438;2023-11-18T13:30:01;5.70;99.90
55004;DHT22;40900;52.710;6.438;2023-11-18T13:32:29;5.60;99.90
55004;DHT22;40900;52.710;6.438;2023-11-18T13:34:55;5.70;99.90
55004;DHT22;40900;52.710;6.438;2023-11-18T13:37:22;5.80;99.90
55004;DHT22;40900;52.710;6.438;2023-11-18T13:39:55;5.70;99.90
55004;DHT22;40900;52.710;6.438;2023-11-18T13:42:25;5.70;99.90
55004;DHT22;40900;52.710;6.438;2023-11-18T13:44:59;5.70;99.90
55004;DHT22;40900;52.710;6.438;2023-11-18T13:47:28;5.80;99.90
55004;DHT22;40900;52.710;6.438;2023-11-18T13:49:54;5.80;99.90
55004;DHT22;40900;52.710;6.438;2023-11-18T13:52:20;5.80;99.90
55004;DHT22;40900;52.710;6.438;2023-11-18T13:54:50;5.80;99.90
55004;DHT22;40900;52.710;6.438;2023-11-18T13:57:21;5.90;99.90
55004;DHT22;40900;52.710;6.438;2023-11-18T13:59:50;5.90;99.90
55004;DHT22;40900;52.710;6.438;2023-11-18T14:02:16;5.80;99.90
55004;DHT22;40900;52.710;6.438;2023-11-18T14:04:44;5.90;99.90
55004;DHT22;40900;52.710;6.438;2023-11-18T14:07:14;5.80;99.90
55004;DHT22;40900;52.710;6.438;2023-11-18T14:09:41;5.90;99.90
55004;DHT22;40900;52.710;6.438;2023-11-18T14:12:11;5.90;99.90
55004;DHT22;40900;52.710;6.438;2023-11-18T14:14:38;6.00;99.90
55004;DHT22;40900;52.710;6.438;2023-11-18T14:17:04;5.90;99.90
55004;DHT22;40900;52.710;6.438;2023-11-18T14:19:32;5.90;99.90
55004;DHT22;40900;52.710;6.438;2023-11-18T14:22:00;6.00;99.90
55004;DHT22;40900;52.710;6.438;2023-11-18T14:24:26;6.00;99.90
55004;DHT22;40900;52.710;6.438;2023-11-18T14:26:53;6.00;99.90
55004;DHT22;40900;52.710;6.438;2023-11-18T14:29:19;6.00;99.90
55004;DHT22;40900;52.710;6.438;2023-11-18T14:31:46;6.00;99.90
55004;DHT22;40900;52.710;6.438;2023-11-18T14:34:11;6.00;99.90
55004;DHT22;40900;52.710;6.438;2023-11-18T14:36:37;6.00;99.90
55004;DHT22;40900;52.710;6.438;2023-11-18T14:39:04;6.10;99.90
55004;DHT22;40900;52.710;6.438;2023-11-18T14:41:30;6.00;99.90
55004;DHT22;40900;52.710;6.438;2023-11-18T14:44:00;6.00;99.90
55004;DHT22;40900;52.710;6.438;2023-11-18T14:46:27;6.00;99.90
55004;DHT22;40900;52.710;6.438;2023-11-18T14:48:53;6.10;99.90
55004;DHT22;40900;52.710;6.438;2023-11-18T14:51:19;6.10;99.90
55004;DHT22;40900;52.710;6.438;2023-11-18T14:53:46;6.00;99.90
55004;DHT22;40900;52.710;6.438;2023-11-18T14:56:12;6.20;99.90
55004;DHT22;40900;52.710;6.438;2023-11-18T14:58:37;6.10;99.90
55004;DHT22;40900;52.710;6.438;2023-11-18T15:01:04;6.10;99.90
55004;DHT22;40900;52.710;6.438;2023-11-18T15:03:33;6.10;99.90
55004;DHT22;40900;52.710;6.438;2023-11-18T15:05:58;6.20;99.90
55004;DHT22;40900;52.710;6.438;2023-11-18T15:08:24;6.10;99.90
55004;DHT22;40900;52.710;6.438;2023-11-18T15:10:50;6.10;99.90
55004;DHT22;40900;52.710;6.438;2023-11-18T15:13:16;6.10;99.90
55004;DHT22;40900;52.710;6.438;2023-11-18T15:15:43;6.10;99.90
55004;DHT22;40900;52.710;6.438;2023-11-18T15:18:13;6.20;99.90
55004;DHT22;40900;52.710;6.438;2023-11-18T15:20:49;6.20;99.90
55004;DHT22;40900;52.710;6.438;2023-11-18T15:23:18;6.10;99.90
55004;DHT22;40900;52.710;6.438;2023-11-18T15:25:47;6.20;99.90
55004;DHT22;40900;52.710;6.438;2023-11-18T15:28:16;6.10;99.90
55004;DHT22;40900;52.710;6.438;2023-11-18T15:30:43;6.10;99.90
55004;DHT22;40900;52.710;6.438;2023-11-18T15:33:11;6.20;99.90
55004;DHT22;40900;52.710;6.438;2023-11-18T15:35:39;6.20;99.90
55004;DHT22;40900;52.710;6.438;2023-11-18T15:38:08;6.20;99.90
55004;DHT22;40900;52.710;6.438;2023-11-18T15:40:35;6.20;99.90
55004;DHT22;40900;52.710;6.438;2023-11-18T15:43:05;6.20;99.90
55004;DHT22;40900;52.710;6.438;2023-11-18T15:45:32;6.20;99.90
55004;DHT22;40900;52.710;6.438;2023-11-18T15:48:01;6.20;99.90
55004;DHT22;40900;52.710;6.438;2023-11-18T15:50:31;6.20;99.90
55004;DHT22;40900;52.710;6.438;2023-11-18T15:53:03;6.20;99.90
55004;DHT22;40900;52.710;6.438;2023-11-18T15:55:29;6.30;99.90
55004;DHT22;40900;52.710;6.438;2023-11-18T15:57:56;6.20;99.90
55004;DHT22;40900;52.710;6.438;2023-11-18T16:00:24;6.30;99.90
55004;DHT22;40900;52.710;6.438;2023-11-18T16:02:55;6.30;99.90
55004;DHT22;40900;52.710;6.438;2023-11-18T16:05:27;6.20;99.90
55004;DHT22;40900;52.710;6.438;2023-11-18T16:07:54;6.30;99.90
55004;DHT22;40900;52.710;6.438;2023-11-18T16:10:22;6.30;99.90
55004;DHT22;40900;52.710;6.438;2023-11-18T16:12:52;6.30;99.90
55004;DHT22;40900;52.710;6.438;2023-11-18T16:15:19;6.30;99.90
55004;DHT22;40900;52.710;6.438;2023-11-18T16:17:46;6.40;99.90
55004;DHT22;40900;52.710;6.438;2023-11-18T16:20:12;6.40;99.90
55004;DHT22;40900;52.710;6.438;2023-11-18T16:22:43;6.40;99.90